createdAt,value
2022-11-11T00:01:14.371Z,6.76
2022-11-11T00:03:41.868Z,6.70
2022-11-11T00:06:14.363Z,6.64
2022-11-11T00:08:41.891Z,6.60
2022-11-11T00:11:13.447Z,6.58
2022-11-11T00:13:41.146Z,6.64
2022-11-11T00:16:16.231Z,6.61
2022-11-11T00:19:02.586Z,6.61
2022-11-11T00:21:39.074Z,6.63
2022-11-11T00:24:27.073Z,6.73
2022-11-11T00:26:53.992Z,6.75
2022-11-11T00:29:21.146Z,6.71
2022-11-11T00:32:06.679Z,6.77
2022-11-11T00:34:33.604Z,6.75
2022-11-11T00:37:00.565Z,6.70
2022-11-11T00:39:27.396Z,6.68
2022-11-11T00:41:54.279Z,6.63
2022-11-11T00:44:21.101Z,6.56
2022-11-11T00:47:06.763Z,6.65
2022-11-11T00:49:52.459Z,6.59
2022-11-11T00:52:19.311Z,6.50
2022-11-11T00:54:46.149Z,6.42
2022-11-11T00:57:12.959Z,6.42
2022-11-11T00:59:40.440Z,6.31
2022-11-11T01:02:07.359Z,6.32
2022-11-11T01:04:34.543Z,6.28
2022-11-11T01:07:01.425Z,6.22
2022-11-11T01:09:28.458Z,6.08
2022-11-11T01:11:55.398Z,6.07
2022-11-11T01:14:22.295Z,6.09
2022-11-11T01:16:49.232Z,6.08
2022-11-11T01:19:16.101Z,6.04
2022-11-11T01:21:43.038Z,5.92
2022-11-11T01:24:10.267Z,5.90
2022-11-11T01:26:37.192Z,5.92
2022-11-11T01:29:04.121Z,5.87
2022-11-11T01:31:31.162Z,5.91
2022-11-11T01:33:58.235Z,5.88
2022-11-11T01:36:27.221Z,5.85
2022-11-11T01:38:56.621Z,5.81
2022-11-11T01:41:35.289Z,5.77
2022-11-11T01:44:11.608Z,5.75
2022-11-11T01:46:47.370Z,5.67
2022-11-11T01:49:29.597Z,5.57
2022-11-11T01:52:33.067Z,5.59
2022-11-11T01:54:59.990Z,5.54
2022-11-11T01:57:29.386Z,5.44
2022-11-11T02:00:04.382Z,5.44
2022-11-11T02:02:37.847Z,5.43
2022-11-11T02:05:24.429Z,5.40
2022-11-11T02:07:51.711Z,5.31
2022-11-11T02:10:22.592Z,5.27
2022-11-11T02:13:08.062Z,5.13
2022-11-11T02:15:36.050Z,5.14
2022-11-11T02:18:03.322Z,5.13
2022-11-11T02:20:33.259Z,5.13
2022-11-11T02:23:32.936Z,5.14
2022-11-11T02:26:01.274Z,5.12
2022-11-11T02:28:28.312Z,5.10
2022-11-11T02:30:55.344Z,5.10
2022-11-11T02:33:22.481Z,5.08
2022-11-11T02:35:56.359Z,5.05
2022-11-11T02:38:24.888Z,4.98
2022-11-11T02:41:10.473Z,4.89
2022-11-11T02:43:37.478Z,4.91
2022-11-11T02:46:05.750Z,4.85
2022-11-11T02:48:33.174Z,4.79
2022-11-11T02:51:00.029Z,4.74
2022-11-11T02:53:27.571Z,4.70
2022-11-11T02:55:54.803Z,4.62
2022-11-11T02:58:21.895Z,4.64
2022-11-11T03:00:48.811Z,4.52
2022-11-11T03:03:15.735Z,4.52
2022-11-11T03:05:42.832Z,4.45
2022-11-11T03:08:10.163Z,4.39
2022-11-11T03:10:37.355Z,4.38
2022-11-11T03:13:04.422Z,4.39
2022-11-11T03:15:31.335Z,4.32
2022-11-11T03:17:58.352Z,4.34
2022-11-11T03:20:43.836Z,4.32
2022-11-11T03:23:15.526Z,4.31
2022-11-11T03:25:46.848Z,4.31
2022-11-11T03:28:15.065Z,4.29
2022-11-11T03:30:44.088Z,4.27
2022-11-11T03:33:11.423Z,4.26
2022-11-11T03:35:38.711Z,4.22
2022-11-11T03:38:23.612Z,4.18
2022-11-11T03:40:54.490Z,4.14
2022-11-11T03:43:23.483Z,4.08
2022-11-11T03:45:52.097Z,4.06
2022-11-11T03:48:19.095Z,4.01
2022-11-11T03:50:48.071Z,3.91
2022-11-11T03:53:15.922Z,3.88
2022-11-11T03:55:43.345Z,3.84
2022-11-11T03:58:10.384Z,3.80
2022-11-11T04:00:37.554Z,3.82
2022-11-11T04:03:37.470Z,3.81
2022-11-11T04:06:23.823Z,3.80
2022-11-11T04:09:09.400Z,3.76
2022-11-11T04:11:40.284Z,3.73
2022-11-11T04:14:28.607Z,3.72
2022-11-11T04:16:55.907Z,3.70
2022-11-11T04:19:41.796Z,3.70
2022-11-11T04:22:09.014Z,3.64
2022-11-11T04:24:54.485Z,3.62
2022-11-11T04:27:21.589Z,3.62
2022-11-11T04:29:48.535Z,3.62
2022-11-11T04:32:36.221Z,3.69
2022-11-11T04:35:07.412Z,3.69
2022-11-11T04:37:46.016Z,3.69
2022-11-11T04:40:32.186Z,3.72
2022-11-11T04:42:58.998Z,3.75
2022-11-11T04:45:28.888Z,3.78
2022-11-11T04:48:01.306Z,3.79
2022-11-11T04:50:30.770Z,3.81
2022-11-11T04:52:57.764Z,3.83
2022-11-11T04:55:43.714Z,3.82
2022-11-11T04:58:11.098Z,3.80
2022-11-11T05:00:37.957Z,3.89
2022-11-11T05:03:17.461Z,3.89
2022-11-11T05:06:14.232Z,3.92
2022-11-11T05:08:57.849Z,3.99
2022-11-11T05:11:35.782Z,4.02
2022-11-11T05:14:23.952Z,4.04
2022-11-11T05:17:11.654Z,4.00
2022-11-11T05:19:57.987Z,4.03
2022-11-11T05:22:42.037Z,4.07
2022-11-11T05:25:25.551Z,4.12
2022-11-11T05:27:57.221Z,4.15
2022-11-11T05:30:24.771Z,4.17
2022-11-11T05:32:51.965Z,4.18
2022-11-11T05:35:18.910Z,4.26
2022-11-11T05:38:05.909Z,4.31
2022-11-11T05:40:32.783Z,4.34
2022-11-11T05:42:59.722Z,4.36
2022-11-11T05:45:26.545Z,4.40
2022-11-11T05:47:53.458Z,4.44
2022-11-11T05:50:20.444Z,4.45
2022-11-11T05:52:48.973Z,4.46
2022-11-11T05:55:15.903Z,4.50
2022-11-11T05:57:42.787Z,4.53
2022-11-11T06:00:10.721Z,4.55
2022-11-11T06:02:38.242Z,4.51
2022-11-11T06:05:05.415Z,4.53
2022-11-11T06:07:32.252Z,4.58
2022-11-11T06:10:18.985Z,4.61
2022-11-11T06:13:10.206Z,4.68
2022-11-11T06:15:41.082Z,4.72
2022-11-11T06:18:07.977Z,4.72
2022-11-11T06:20:37.739Z,4.82
2022-11-11T06:23:05.209Z,4.85
2022-11-11T06:25:52.086Z,4.92
2022-11-11T06:28:19.333Z,5.00
2022-11-11T06:30:50.787Z,5.09
2022-11-11T06:33:19.161Z,5.15
2022-11-11T06:35:46.027Z,5.13
2022-11-11T06:38:12.866Z,5.04
2022-11-11T06:40:39.911Z,5.18
2022-11-11T06:43:06.751Z,5.23
2022-11-11T06:45:35.241Z,5.35
2022-11-11T06:48:06.002Z,5.48
2022-11-11T06:50:33.485Z,5.62
2022-11-11T06:53:12.039Z,5.75
2022-11-11T06:55:39.405Z,5.80
2022-11-11T06:58:11.634Z,5.83
2022-11-11T07:00:39.587Z,5.86
2022-11-11T07:03:07.620Z,5.82
2022-11-11T07:05:34.564Z,5.64
2022-11-11T07:08:06.559Z,5.80
2022-11-11T07:10:34.996Z,5.82
2022-11-11T07:13:02.310Z,5.95
2022-11-11T07:15:29.214Z,6.08
2022-11-11T07:17:56.059Z,6.25
2022-11-11T07:20:22.983Z,6.19
2022-11-11T07:22:49.850Z,6.36
2022-11-11T07:25:16.818Z,6.37
2022-11-11T07:27:43.757Z,6.34
2022-11-11T07:30:12.007Z,6.42
2022-11-11T07:32:49.810Z,6.53
2022-11-11T07:35:17.990Z,6.48
2022-11-11T07:37:45.588Z,6.62
2022-11-11T07:40:14.962Z,6.67
2022-11-11T07:42:42.987Z,6.76
2022-11-11T07:45:11.151Z,6.85
2022-11-11T07:47:38.051Z,6.88
2022-11-11T07:50:08.240Z,6.98
2022-11-11T07:52:37.376Z,7.12
2022-11-11T07:55:08.483Z,7.19
2022-11-11T07:57:35.650Z,7.27
2022-11-11T08:00:02.675Z,7.35
2022-11-11T08:02:29.522Z,7.41
2022-11-11T08:04:56.409Z,7.51
2022-11-11T08:07:24.393Z,7.61
2022-11-11T08:09:52.212Z,7.68
2022-11-11T08:12:37.887Z,7.76
2022-11-11T08:15:07.250Z,7.91
2022-11-11T08:17:39.403Z,7.89
2022-11-11T08:20:08.150Z,8.02
2022-11-11T08:22:38.718Z,8.08
2022-11-11T08:25:11.207Z,8.16
2022-11-11T08:27:38.625Z,8.25
2022-11-11T08:30:06.890Z,8.48
2022-11-11T08:32:33.852Z,8.27
2022-11-11T08:35:00.724Z,8.59
2022-11-11T08:37:28.373Z,8.78
2022-11-11T08:39:55.546Z,8.78
2022-11-11T08:42:22.471Z,8.43
2022-11-11T08:44:49.517Z,8.89
2022-11-11T08:47:16.568Z,9.08
2022-11-11T08:49:43.587Z,9.19
2022-11-11T08:52:10.437Z,9.24
2022-11-11T08:54:37.275Z,9.16
2022-11-11T08:57:04.068Z,9.31
2022-11-11T08:59:31.032Z,9.60
2022-11-11T09:01:57.979Z,9.65
2022-11-11T09:07:11.802Z,9.81
2022-11-11T09:09:38.703Z,9.91
2022-11-11T09:12:05.527Z,9.96
2022-11-11T09:14:32.485Z,9.78
2022-11-11T09:16:59.329Z,9.66
2022-11-11T09:19:26.197Z,9.54
2022-11-11T09:21:53.329Z,9.55
2022-11-11T09:24:20.342Z,9.67
2022-11-11T09:26:51.020Z,9.87
2022-11-11T09:29:18.845Z,10.05
2022-11-11T09:31:46.685Z,10.15
2022-11-11T09:34:14.609Z,10.05
2022-11-11T09:36:41.797Z,10.23
2022-11-11T09:39:08.848Z,9.77
2022-11-11T09:41:39.820Z,10.23
2022-11-11T09:44:34.820Z,10.66
2022-11-11T09:47:31.949Z,10.88
2022-11-11T09:50:16.473Z,10.99
2022-11-11T09:52:52.886Z,11.31
2022-11-11T09:55:33.939Z,11.00
2022-11-11T09:58:20.426Z,11.46
2022-11-11T10:00:51.196Z,11.53
2022-11-11T10:03:22.944Z,11.66
2022-11-11T10:05:56.410Z,11.82
2022-11-11T10:08:28.785Z,12.08
2022-11-11T10:10:59.512Z,11.66
2022-11-11T10:13:31.904Z,12.08
2022-11-11T10:16:07.672Z,11.82
2022-11-11T10:18:55.874Z,12.49
2022-11-11T10:24:46.985Z,13.17
2022-11-11T10:27:19.782Z,13.05
2022-11-11T10:29:47.387Z,13.26
2022-11-11T10:32:21.095Z,12.47
2022-11-11T10:34:48.006Z,12.99
2022-11-11T10:37:25.658Z,12.73
2022-11-11T10:40:02.453Z,12.47
2022-11-11T10:42:29.250Z,12.55
2022-11-11T10:45:03.826Z,12.54
2022-11-11T10:48:00.714Z,12.62
2022-11-11T10:50:49.709Z,13.05
2022-11-11T10:53:40.150Z,13.10
2022-11-11T10:56:20.961Z,13.02
2022-11-11T10:58:54.034Z,13.18
2022-11-11T11:01:35.635Z,13.23
2022-11-11T11:04:08.841Z,13.33
2022-11-11T11:06:38.322Z,13.34
2022-11-11T11:09:18.278Z,13.37
2022-11-11T11:11:45.097Z,13.35
2022-11-11T11:14:45.326Z,13.44
2022-11-11T11:17:24.905Z,13.36
2022-11-11T11:20:14.508Z,13.42
2022-11-11T11:22:53.065Z,13.21
2022-11-11T11:27:50.452Z,12.79
2022-11-11T11:30:21.741Z,12.71
2022-11-11T11:33:02.982Z,12.84
2022-11-11T11:35:30.207Z,13.09
2022-11-11T11:37:57.599Z,13.17
2022-11-11T11:40:24.459Z,13.04
2022-11-11T11:42:51.252Z,13.05
2022-11-11T11:45:21.073Z,13.21
2022-11-11T11:48:30.527Z,13.09
2022-11-11T11:51:04.417Z,13.22
2022-11-11T11:53:59.782Z,13.30
2022-11-11T11:56:29.267Z,13.26
2022-11-11T11:59:03.472Z,13.31
2022-11-11T12:01:40.415Z,13.39
2022-11-11T12:04:13.310Z,13.45
2022-11-11T12:07:20.994Z,13.54
2022-11-11T12:10:17.556Z,13.50
2022-11-11T12:13:05.833Z,13.44
2022-11-11T12:15:58.381Z,13.46
2022-11-11T12:18:44.922Z,13.50
2022-11-11T12:21:14.746Z,13.66
2022-11-11T12:24:15.146Z,13.83
2022-11-11T12:27:11.754Z,13.74
2022-11-11T12:29:56.958Z,13.74
2022-11-11T12:32:26.649Z,13.72
2022-11-11T12:35:30.968Z,13.81
2022-11-11T12:38:11.479Z,13.91
2022-11-11T12:41:03.271Z,13.95
2022-11-11T12:43:39.186Z,13.54
2022-11-11T12:46:15.616Z,13.49
2022-11-11T12:49:25.567Z,13.50
2022-11-11T12:52:23.262Z,13.54
2022-11-11T12:55:14.561Z,13.66
2022-11-11T12:58:09.369Z,13.62
2022-11-11T13:00:44.251Z,13.31
2022-11-11T13:03:35.897Z,13.37
2022-11-11T13:06:22.267Z,13.32
2022-11-11T13:09:04.376Z,13.36
2022-11-11T13:11:43.911Z,13.43
2022-11-11T13:14:31.993Z,13.54
2022-11-11T13:17:01.571Z,13.40
2022-11-11T13:19:41.528Z,13.33
2022-11-11T13:22:22.156Z,13.13
2022-11-11T13:24:53.423Z,13.13
2022-11-11T13:27:23.686Z,13.15
2022-11-11T13:30:05.993Z,13.12
2022-11-11T13:32:41.912Z,12.98
2022-11-11T13:35:27.352Z,12.97
2022-11-11T13:37:54.208Z,12.94
2022-11-11T13:40:40.551Z,12.83
2022-11-11T13:43:38.200Z,12.68
2022-11-11T13:46:05.975Z,12.75
2022-11-11T13:48:37.195Z,12.71
2022-11-11T13:51:11.969Z,12.63
2022-11-11T13:53:39.415Z,12.58
2022-11-11T13:56:07.817Z,12.51
2022-11-11T13:58:37.352Z,12.45
2022-11-11T14:01:06.936Z,12.43
2022-11-11T14:03:45.821Z,12.31
2022-11-11T14:06:15.528Z,12.28
2022-11-11T14:08:50.800Z,12.20
2022-11-11T14:11:26.803Z,12.10
2022-11-11T14:13:55.110Z,12.08
2022-11-11T14:16:37.223Z,12.02
2022-11-11T14:19:24.671Z,11.98
2022-11-11T14:21:58.658Z,11.90
2022-11-11T14:24:37.158Z,11.86
2022-11-11T14:27:18.264Z,11.81
2022-11-11T14:29:53.883Z,11.77
2022-11-11T14:32:55.507Z,11.67
2022-11-11T14:35:46.297Z,11.58
2022-11-11T14:38:55.038Z,11.51
2022-11-11T14:41:40.894Z,11.40
2022-11-11T14:44:33.840Z,11.35
2022-11-11T14:47:04.952Z,11.30
2022-11-11T14:49:51.585Z,11.24
2022-11-11T14:52:41.088Z,11.21
2022-11-11T14:55:23.244Z,11.12
2022-11-11T14:57:54.553Z,11.06
2022-11-11T15:00:27.794Z,11.04
2022-11-11T15:03:01.713Z,10.98
2022-11-11T15:06:01.895Z,10.94
2022-11-11T15:08:37.699Z,10.87
2022-11-11T15:11:22.849Z,10.82
2022-11-11T15:14:28.160Z,10.76
2022-11-11T15:17:06.684Z,10.69
2022-11-11T15:19:55.401Z,10.63
2022-11-11T15:22:47.009Z,10.54
2022-11-11T15:25:33.310Z,10.46
2022-11-11T15:28:06.015Z,10.38
2022-11-11T15:30:51.563Z,10.30
2022-11-11T15:33:25.272Z,10.16
2022-11-11T15:36:10.696Z,10.15
2022-11-11T15:38:38.778Z,10.16
2022-11-11T15:41:06.365Z,10.07
2022-11-11T15:43:34.995Z,10.00
2022-11-11T15:46:03.208Z,9.94
2022-11-11T15:48:43.194Z,9.88
2022-11-11T15:51:22.092Z,9.74
2022-11-11T15:53:49.421Z,9.63
2022-11-11T15:56:33.654Z,9.44
2022-11-11T15:59:23.588Z,9.38
2022-11-11T16:01:51.716Z,9.21
2022-11-11T16:04:55.409Z,9.16
2022-11-11T16:07:17.529Z,9.01
2022-11-11T16:09:45.347Z,8.92
2022-11-11T16:12:13.669Z,8.99
2022-11-11T16:14:44.635Z,8.95
2022-11-11T16:17:12.919Z,8.94
2022-11-11T16:19:49.073Z,8.88
2022-11-11T16:22:42.772Z,8.84
2022-11-11T16:25:15.899Z,8.75
2022-11-11T16:27:43.131Z,8.62
2022-11-11T16:30:34.612Z,8.60
2022-11-11T16:33:01.934Z,8.55
2022-11-11T16:35:33.102Z,8.53
2022-11-11T16:38:00.188Z,8.48
2022-11-11T16:40:42.634Z,8.46
2022-11-11T16:43:29.927Z,8.43
2022-11-11T16:46:04.203Z,8.38
2022-11-11T16:48:34.078Z,8.34
2022-11-11T16:51:04.078Z,8.29
2022-11-11T16:53:35.779Z,8.10
2022-11-11T16:56:04.487Z,8.14
2022-11-11T16:58:31.784Z,8.09
2022-11-11T17:01:03.293Z,8.01
2022-11-11T17:03:30.653Z,8.03
2022-11-11T17:06:10.145Z,7.97
2022-11-11T17:08:43.610Z,7.91
2022-11-11T17:11:28.559Z,7.81
2022-11-11T17:13:55.419Z,7.80
2022-11-11T17:16:23.434Z,7.71
2022-11-11T17:18:50.478Z,7.68
2022-11-11T17:21:17.458Z,7.66
2022-11-11T17:23:45.164Z,7.63
2022-11-11T17:26:12.376Z,7.63
2022-11-11T17:28:39.682Z,7.62
2022-11-11T17:31:08.564Z,7.63
2022-11-11T17:33:35.901Z,7.65
2022-11-11T17:36:03.132Z,7.63
2022-11-11T17:38:35.904Z,7.66
2022-11-11T17:41:02.910Z,7.63
2022-11-11T17:43:30.661Z,7.62
2022-11-11T17:46:01.467Z,7.49
2022-11-11T17:48:28.689Z,7.43
2022-11-11T17:50:55.539Z,7.57
2022-11-11T17:53:22.383Z,7.59
2022-11-11T17:55:50.866Z,7.57
2022-11-11T17:58:19.380Z,7.66
2022-11-11T18:00:46.896Z,7.67
2022-11-11T18:03:13.928Z,7.67
2022-11-11T18:05:41.067Z,7.67
2022-11-11T18:08:11.257Z,7.69
2022-11-11T18:10:38.210Z,7.62
2022-11-11T18:13:05.295Z,7.67
2022-11-11T18:15:34.676Z,7.69
2022-11-11T18:18:01.818Z,7.71
2022-11-11T18:20:28.911Z,7.69
2022-11-11T18:22:56.780Z,7.72
2022-11-11T18:25:24.336Z,7.73
2022-11-11T18:27:53.537Z,7.76
2022-11-11T18:30:21.896Z,7.82
2022-11-11T18:32:48.743Z,7.85
2022-11-11T18:35:17.310Z,7.81
2022-11-11T18:37:46.730Z,7.73
2022-11-11T18:40:14.738Z,7.74
2022-11-11T18:42:41.800Z,7.67
2022-11-11T18:45:09.191Z,7.59
2022-11-11T18:47:36.398Z,7.60
2022-11-11T18:50:04.179Z,7.61
2022-11-11T18:52:31.316Z,7.60
2022-11-11T18:54:58.347Z,7.57
2022-11-11T18:57:26.457Z,7.64
2022-11-11T18:59:53.740Z,7.65
2022-11-11T19:02:21.762Z,7.58
2022-11-11T19:04:49.705Z,7.59
2022-11-11T19:07:17.378Z,7.42
2022-11-11T19:09:44.889Z,7.49
2022-11-11T19:12:12.192Z,7.39
2022-11-11T19:14:39.313Z,7.44
2022-11-11T19:17:06.601Z,7.28
2022-11-11T19:19:33.816Z,7.27
2022-11-11T19:22:00.787Z,7.25
2022-11-11T19:24:32.196Z,7.33
2022-11-11T19:27:00.642Z,7.25
2022-11-11T19:29:28.215Z,7.26
2022-11-11T19:31:55.383Z,7.29
2022-11-11T19:34:22.452Z,7.32
2022-11-11T19:36:49.841Z,7.27
2022-11-11T19:39:16.744Z,7.28
2022-11-11T19:41:43.643Z,7.17
2022-11-11T19:44:12.133Z,7.16
2022-11-11T19:46:40.196Z,7.15
2022-11-11T19:49:07.207Z,7.20
2022-11-11T19:51:34.580Z,7.25
2022-11-11T19:54:01.522Z,7.17
2022-11-11T19:56:31.796Z,7.15
2022-11-11T19:58:58.936Z,7.12
2022-11-11T20:01:26.951Z,7.12
2022-11-11T20:03:54.650Z,7.03
2022-11-11T20:06:26.749Z,7.02
2022-11-11T20:08:54.920Z,7.02
2022-11-11T20:11:23.003Z,7.01
2022-11-11T20:13:50.118Z,7.04
2022-11-11T20:16:17.535Z,7.02
2022-11-11T20:18:44.427Z,6.99
2022-11-11T20:21:13.059Z,6.99
2022-11-11T20:23:41.418Z,7.02
2022-11-11T20:26:14.189Z,6.97
2022-11-11T20:28:41.538Z,6.96
2022-11-11T20:31:16.847Z,6.94
2022-11-11T20:33:44.446Z,6.96
2022-11-11T20:36:12.935Z,6.88
2022-11-11T20:38:40.287Z,6.87
2022-11-11T20:41:11.318Z,6.81
2022-11-11T20:43:38.458Z,6.72
2022-11-11T20:46:10.544Z,6.74
2022-11-11T20:48:39.825Z,6.77
2022-11-11T20:51:12.144Z,6.79
2022-11-11T20:53:39.378Z,6.74
2022-11-11T20:56:09.243Z,6.72
2022-11-11T20:58:36.927Z,6.71
2022-11-11T21:01:05.798Z,6.71
2022-11-11T21:03:32.960Z,6.65
2022-11-11T21:06:03.673Z,6.64
2022-11-11T21:08:32.888Z,6.61
2022-11-11T21:11:00.763Z,6.59
2022-11-11T21:13:29.596Z,6.58
2022-11-11T21:16:15.772Z,6.61
2022-11-11T21:18:44.970Z,6.60
2022-11-11T21:21:25.126Z,6.55
2022-11-11T21:24:02.652Z,6.62
2022-11-11T21:26:29.969Z,6.66
2022-11-11T21:28:57.408Z,6.68
2022-11-11T21:31:26.791Z,6.69
2022-11-11T21:33:58.748Z,6.69
2022-11-11T21:36:27.305Z,6.72
2022-11-11T21:38:54.693Z,6.72
2022-11-11T21:41:26.352Z,6.75
2022-11-11T21:43:54.180Z,6.76
2022-11-11T21:46:23.151Z,6.77
2022-11-11T21:48:50.963Z,6.79
2022-11-11T21:51:23.657Z,6.79
2022-11-11T21:53:58.047Z,6.83
2022-11-11T21:56:31.176Z,6.83
2022-11-11T21:59:00.849Z,6.75
2022-11-11T22:01:31.007Z,6.68
2022-11-11T22:04:03.041Z,6.69
2022-11-11T22:06:30.407Z,6.71
2022-11-11T22:08:58.359Z,6.59
2022-11-11T22:11:27.647Z,6.55
2022-11-11T22:13:54.604Z,6.60
2022-11-11T22:16:26.552Z,6.63
2022-11-11T22:19:13.952Z,6.63
2022-11-11T22:21:42.032Z,6.58
2022-11-11T22:24:10.233Z,6.54
2022-11-11T22:26:39.916Z,6.28
2022-11-11T22:29:09.049Z,6.22
2022-11-11T22:31:37.351Z,6.22
2022-11-11T22:34:06.283Z,6.26
2022-11-11T22:36:34.293Z,6.31
2022-11-11T22:39:01.194Z,6.34
2022-11-11T22:41:30.227Z,6.36
2022-11-11T22:43:59.829Z,6.32
2022-11-11T22:46:28.226Z,6.33
2022-11-11T22:48:57.048Z,6.22
2022-11-11T22:51:25.034Z,6.29
2022-11-11T22:53:57.022Z,6.33
2022-11-11T22:56:24.624Z,6.31
2022-11-11T22:58:52.089Z,6.13
2022-11-11T23:01:29.501Z,6.14
2022-11-11T23:04:01.837Z,6.23
2022-11-11T23:06:36.029Z,6.27
2022-11-11T23:09:04.266Z,6.19
2022-11-11T23:11:32.601Z,6.10
2022-11-11T23:14:01.332Z,6.30
2022-11-11T23:16:29.118Z,6.31
2022-11-11T23:18:55.964Z,6.18
2022-11-11T23:21:24.247Z,6.30
2022-11-11T23:23:51.958Z,6.13
2022-11-11T23:26:25.474Z,6.03
2022-11-11T23:28:52.554Z,5.95
2022-11-11T23:31:22.975Z,6.03
2022-11-11T23:33:52.095Z,6.18
2022-11-11T23:36:20.837Z,6.27
2022-11-11T23:38:48.806Z,6.35
2022-11-11T23:41:15.842Z,6.31
2022-11-11T23:43:44.359Z,6.27
2022-11-11T23:46:11.676Z,6.35
2022-11-11T23:48:38.944Z,6.31
2022-11-11T23:51:05.867Z,6.43
2022-11-11T23:53:32.913Z,6.40
2022-11-11T23:55:59.753Z,6.45
2022-11-11T23:58:27.036Z,6.48
